createdAt,value
2019-06-08T00:00:54.219Z,0
2019-06-08T00:01:55.700Z,0
2019-06-08T00:02:57.125Z,0
2019-06-08T00:03:58.790Z,0
2019-06-08T00:05:00.227Z,0
2019-06-08T00:06:01.628Z,0
2019-06-08T00:07:03.399Z,0
2019-06-08T00:08:05.350Z,0
2019-06-08T00:09:06.737Z,0
2019-06-08T00:10:08.248Z,0
2019-06-08T00:11:09.656Z,0
2019-06-08T00:12:11.061Z,0
2019-06-08T00:13:13.137Z,0
2019-06-08T00:14:15.084Z,0
2019-06-08T00:15:16.057Z,0
2019-06-08T00:16:17.410Z,0
2019-06-08T00:17:30.340Z,0
2019-06-08T00:18:19.619Z,0
2019-06-08T00:19:21.583Z,0
2019-06-08T00:20:23.692Z,0
2019-06-08T00:21:24.511Z,0
2019-06-08T00:22:25.907Z,0
2019-06-08T00:23:27.345Z,0
2019-06-08T00:24:28.834Z,0
2019-06-08T00:25:30.227Z,0
2019-06-08T00:26:31.646Z,0
2019-06-08T00:27:33.152Z,0
2019-06-08T00:28:34.554Z,0
2019-06-08T00:29:35.956Z,0
2019-06-08T00:30:39.161Z,0
2019-06-08T00:31:39.211Z,0
2019-06-08T00:32:40.620Z,0
2019-06-08T00:33:42.202Z,0
2019-06-08T00:34:43.598Z,0
2019-06-08T00:35:45.082Z,0
2019-06-08T00:36:46.479Z,0
2019-06-08T00:37:47.879Z,0
2019-06-08T00:38:49.400Z,0
2019-06-08T00:39:50.832Z,0
2019-06-08T00:40:52.609Z,0
2019-06-08T00:41:54.156Z,0
2019-06-08T00:42:55.533Z,0
2019-06-08T00:43:56.932Z,0
2019-06-08T00:44:58.506Z,0
2019-06-08T00:45:59.854Z,0
2019-06-08T00:47:01.250Z,0
2019-06-08T00:48:02.776Z,0
2019-06-08T00:49:04.174Z,0
2019-06-08T00:50:05.664Z,0
2019-06-08T00:51:07.093Z,0
2019-06-08T00:52:08.538Z,0
2019-06-08T00:53:09.941Z,0
2019-06-08T00:54:11.334Z,0
2019-06-08T00:55:12.877Z,0
2019-06-08T00:56:14.276Z,0
2019-06-08T00:57:15.696Z,0
2019-06-08T00:58:18.058Z,0
2019-06-08T00:59:19.931Z,0
2019-06-08T01:00:20.406Z,0
2019-06-08T01:01:24.312Z,0
2019-06-08T01:02:24.455Z,0
2019-06-08T01:03:25.606Z,0
2019-06-08T01:04:26.919Z,0
2019-06-08T01:05:27.390Z,0
2019-06-08T01:06:29.743Z,0
2019-06-08T01:07:30.725Z,0
2019-06-08T01:08:32.125Z,0
2019-06-08T01:09:33.530Z,0
2019-06-08T01:10:35.084Z,0
2019-06-08T01:11:36.481Z,0
2019-06-08T01:12:37.880Z,0
2019-06-08T01:13:39.399Z,0
2019-06-08T01:14:40.804Z,0
2019-06-08T01:15:42.209Z,0
2019-06-08T01:16:43.721Z,0
2019-06-08T01:17:59.023Z,0
2019-06-08T01:18:46.488Z,0
2019-06-08T01:19:48.043Z,0
2019-06-08T01:20:49.443Z,0
2019-06-08T01:21:50.925Z,0
2019-06-08T01:22:52.329Z,0
2019-06-08T01:23:53.811Z,0
2019-06-08T01:24:55.211Z,0
2019-06-08T01:25:56.685Z,0
2019-06-08T01:26:58.093Z,0
2019-06-08T01:27:59.570Z,0
2019-06-08T01:29:00.968Z,0
2019-06-08T01:30:02.480Z,0
2019-06-08T01:31:03.880Z,0
2019-06-08T01:32:05.339Z,0
2019-06-08T01:33:06.728Z,0
2019-06-08T01:34:08.214Z,0
2019-06-08T01:35:09.612Z,0
2019-06-08T01:36:11.092Z,0
2019-06-08T01:37:12.489Z,0
2019-06-08T01:38:13.981Z,0
2019-06-08T01:39:15.375Z,0
2019-06-08T01:40:16.857Z,0
2019-06-08T01:41:18.256Z,0
2019-06-08T01:42:19.742Z,0
2019-06-08T01:43:21.772Z,0
2019-06-08T01:44:23.521Z,0
2019-06-08T01:45:23.987Z,0
2019-06-08T01:46:25.900Z,0
2019-06-08T01:47:28.132Z,0
2019-06-08T01:48:28.377Z,0
2019-06-08T01:49:30.575Z,0
2019-06-08T01:50:32.666Z,0
2019-06-08T01:51:32.754Z,0
2019-06-08T01:52:34.138Z,0
2019-06-08T01:53:35.540Z,0
2019-06-08T01:54:37.023Z,0
2019-06-08T01:55:38.448Z,0
2019-06-08T01:56:39.902Z,0
2019-06-08T01:57:41.698Z,0
2019-06-08T01:58:43.196Z,0
2019-06-08T01:59:44.600Z,0
2019-06-08T02:00:45.994Z,0
2019-06-08T02:01:47.900Z,0
2019-06-08T02:02:49.674Z,0
2019-06-08T02:03:51.073Z,0
2019-06-08T02:04:52.652Z,0
2019-06-08T02:05:54.052Z,0
2019-06-08T02:06:55.457Z,0
2019-06-08T02:07:56.981Z,0
2019-06-08T02:08:58.382Z,0
2019-06-08T02:09:59.775Z,0
2019-06-08T02:11:01.295Z,0
2019-06-08T02:12:03.083Z,0
2019-06-08T02:13:08.267Z,0
2019-06-08T02:14:06.436Z,0
2019-06-08T02:15:07.840Z,0
2019-06-08T02:16:09.320Z,0
2019-06-08T02:17:10.727Z,0
2019-06-08T02:18:12.200Z,0
2019-06-08T02:19:13.599Z,0
2019-06-08T02:20:15.006Z,0
2019-06-08T02:21:16.897Z,0
2019-06-08T02:22:18.691Z,0
2019-06-08T02:23:20.079Z,0
2019-06-08T02:24:22.686Z,0
2019-06-08T02:25:24.087Z,0
2019-06-08T02:26:27.050Z,0
2019-06-08T02:27:27.236Z,0
2019-06-08T02:28:29.398Z,0
2019-06-08T02:29:30.063Z,0
2019-06-08T02:30:33.484Z,0
2019-06-08T02:31:34.768Z,0
2019-06-08T02:32:35.611Z,0
2019-06-08T02:33:37.171Z,0
2019-06-08T02:34:38.148Z,0
2019-06-08T02:35:39.115Z,0
2019-06-08T02:36:40.866Z,0
2019-06-08T02:37:42.024Z,0
2019-06-08T02:38:43.439Z,0
2019-06-08T02:39:44.838Z,0
2019-06-08T02:40:46.346Z,0
2019-06-08T02:41:47.745Z,0
2019-06-08T02:42:49.147Z,0
2019-06-08T02:43:50.666Z,0
2019-06-08T02:44:52.066Z,0
2019-06-08T02:45:53.843Z,0
2019-06-08T02:46:55.779Z,0
2019-06-08T02:47:57.553Z,0
2019-06-08T02:49:04.217Z,0
2019-06-08T02:50:00.332Z,0
2019-06-08T02:51:01.734Z,0
2019-06-08T02:52:03.242Z,0
2019-06-08T02:53:04.637Z,0
2019-06-08T02:54:06.133Z,0
2019-06-08T02:55:07.537Z,0
2019-06-08T02:56:08.983Z,0
2019-06-08T02:57:10.375Z,0
2019-06-08T02:58:11.857Z,0
2019-06-08T02:59:13.256Z,0
2019-06-08T03:00:14.660Z,0
2019-06-08T03:01:16.178Z,0
2019-06-08T03:02:17.579Z,0
2019-06-08T03:03:18.984Z,0
2019-06-08T03:04:20.517Z,0
2019-06-08T03:05:21.899Z,0
2019-06-08T03:06:23.297Z,0
2019-06-08T03:07:25.048Z,0
2019-06-08T03:08:26.446Z,0
2019-06-08T03:09:27.895Z,0
2019-06-08T03:10:30.714Z,0
2019-06-08T03:11:30.722Z,0
2019-06-08T03:12:32.976Z,0
2019-06-08T03:13:35.533Z,0
2019-06-08T03:14:35.529Z,0
2019-06-08T03:15:37.098Z,0
2019-06-08T03:16:40.421Z,0
2019-06-08T03:17:40.125Z,0
2019-06-08T03:18:42.359Z,0
2019-06-08T03:19:42.234Z,0
2019-06-08T03:20:43.643Z,0
2019-06-08T03:21:45.295Z,0
2019-06-08T03:22:46.700Z,0
2019-06-08T03:23:48.102Z,0
2019-06-08T03:24:49.831Z,0
2019-06-08T03:25:53.019Z,0
2019-06-08T03:26:52.604Z,0
2019-06-08T03:27:55.065Z,0
2019-06-08T03:28:56.846Z,0
2019-06-08T03:29:58.251Z,0
2019-06-08T03:31:00.821Z,0
2019-06-08T03:32:02.220Z,0
2019-06-08T03:33:03.805Z,0
2019-06-08T03:34:05.226Z,0
2019-06-08T03:35:07.290Z,0
2019-06-08T03:36:08.671Z,0
2019-06-08T03:37:10.453Z,0
2019-06-08T03:38:12.306Z,0
2019-06-08T03:39:13.707Z,0
2019-06-08T03:40:15.106Z,0
2019-06-08T03:41:16.697Z,0
2019-06-08T03:42:18.060Z,0
2019-06-08T03:43:19.459Z,0
2019-06-08T03:44:20.984Z,0
2019-06-08T03:45:22.382Z,0
2019-06-08T03:46:23.781Z,0
2019-06-08T03:47:25.302Z,0
2019-06-08T03:48:26.703Z,0
2019-06-08T03:49:40.977Z,0
2019-06-08T03:50:29.650Z,0
2019-06-08T03:51:35.053Z,0
2019-06-08T03:52:32.833Z,0
2019-06-08T03:53:35.671Z,0
2019-06-08T03:54:36.051Z,0
2019-06-08T03:55:37.949Z,0
2019-06-08T03:56:40.001Z,5
2019-06-08T03:57:40.469Z,5
2019-06-08T03:58:42.605Z,0
2019-06-08T03:59:45.552Z,0
2019-06-08T04:00:46.901Z,0
2019-06-08T04:01:46.590Z,0
2019-06-08T04:02:50.109Z,0
2019-06-08T04:03:50.286Z,0
2019-06-08T04:04:51.348Z,0
2019-06-08T04:05:53.351Z,5
2019-06-08T04:06:54.756Z,0
2019-06-08T04:07:56.466Z,0
2019-06-08T04:08:57.869Z,0
2019-06-08T04:09:59.552Z,5
2019-06-08T04:11:00.952Z,0
2019-06-08T04:12:02.357Z,0
2019-06-08T04:13:04.079Z,0
2019-06-08T04:14:05.482Z,0
2019-06-08T04:15:06.884Z,0
2019-06-08T04:16:08.601Z,0
2019-06-08T04:17:10.010Z,0
2019-06-08T04:18:11.406Z,0
2019-06-08T04:19:12.932Z,0
2019-06-08T04:20:14.328Z,0
2019-06-08T04:21:15.733Z,0
2019-06-08T04:22:17.269Z,5
2019-06-08T04:23:19.057Z,0
2019-06-08T04:24:20.743Z,5
2019-06-08T04:25:22.148Z,5
2019-06-08T04:26:23.550Z,5
2019-06-08T04:27:25.275Z,5
2019-06-08T04:28:27.165Z,10
2019-06-08T04:29:28.565Z,10
2019-06-08T04:30:30.208Z,10
2019-06-08T04:31:31.613Z,5
2019-06-08T04:32:33.010Z,5
2019-06-08T04:33:34.733Z,5
2019-06-08T04:34:36.133Z,5
2019-06-08T04:35:38.171Z,5
2019-06-08T04:36:39.121Z,5
2019-06-08T04:37:42.399Z,5
2019-06-08T04:38:43.156Z,5
2019-06-08T04:39:44.526Z,5
2019-06-08T04:40:45.968Z,5
2019-06-08T04:41:47.118Z,5
2019-06-08T04:42:49.364Z,10
2019-06-08T04:43:49.866Z,10
2019-06-08T04:44:50.711Z,10
2019-06-08T04:45:52.119Z,10
2019-06-08T04:46:53.665Z,10
2019-06-08T04:47:55.064Z,5
2019-06-08T04:48:56.466Z,10
2019-06-08T04:49:58.747Z,10
2019-06-08T04:51:00.147Z,10
2019-06-08T04:52:01.554Z,10
2019-06-08T04:53:03.132Z,5
2019-06-08T04:54:04.541Z,5
2019-06-08T04:55:06.118Z,10
2019-06-08T04:56:07.698Z,10
2019-06-08T04:57:09.061Z,10
2019-06-08T04:58:10.740Z,10
2019-06-08T04:59:12.138Z,10
2019-06-08T05:00:13.847Z,10
2019-06-08T05:01:15.227Z,10
2019-06-08T05:02:16.911Z,10
2019-06-08T05:03:18.316Z,10
2019-06-08T05:04:19.995Z,10
2019-06-08T05:05:21.452Z,10
2019-06-08T05:06:23.083Z,10
2019-06-08T05:07:24.484Z,10
2019-06-08T05:08:26.163Z,5
2019-06-08T05:09:27.575Z,10
2019-06-08T05:10:29.252Z,10
2019-06-08T05:11:30.660Z,10
2019-06-08T05:12:32.060Z,10
2019-06-08T05:13:33.783Z,10
2019-06-08T05:14:35.252Z,10
2019-06-08T05:15:36.657Z,10
2019-06-08T05:16:39.102Z,10
2019-06-08T05:17:41.052Z,10
2019-06-08T05:18:41.307Z,10
2019-06-08T05:19:43.479Z,15
2019-06-08T05:20:46.023Z,15
2019-06-08T05:21:45.501Z,15
2019-06-08T05:22:47.625Z,10
2019-06-08T05:23:57.565Z,15
2019-06-08T05:24:49.993Z,10
2019-06-08T05:25:51.119Z,10
2019-06-08T05:26:52.710Z,15
2019-06-08T05:27:54.119Z,15
2019-06-08T05:28:55.519Z,15
2019-06-08T05:29:57.237Z,15
2019-06-08T05:30:58.639Z,15
2019-06-08T05:32:00.331Z,15
2019-06-08T05:33:02.048Z,15
2019-06-08T05:34:03.412Z,15
2019-06-08T05:35:04.809Z,15
2019-06-08T05:36:06.493Z,15
2019-06-08T05:37:08.273Z,15
2019-06-08T05:38:09.701Z,15
2019-06-08T05:39:11.228Z,15
2019-06-08T05:40:12.633Z,20
2019-06-08T05:41:14.032Z,15
2019-06-08T05:42:15.780Z,20
2019-06-08T05:43:17.187Z,20
2019-06-08T05:44:19.226Z,25
2019-06-08T05:45:20.655Z,20
2019-06-08T05:46:22.331Z,20
2019-06-08T05:47:23.740Z,20
2019-06-08T05:48:25.483Z,20
2019-06-08T05:49:26.861Z,25
2019-06-08T05:50:28.709Z,25
2019-06-08T05:51:30.109Z,25
2019-06-08T05:52:31.794Z,30
2019-06-08T05:53:33.201Z,25
2019-06-08T05:54:34.880Z,30
2019-06-08T05:55:36.287Z,30
2019-06-08T05:56:37.966Z,30
2019-06-08T05:57:40.056Z,25
2019-06-08T05:58:41.836Z,30
2019-06-08T05:59:42.519Z,40
2019-06-08T06:00:44.231Z,35
2019-06-08T06:01:46.675Z,35
2019-06-08T06:02:46.977Z,35
2019-06-08T06:03:48.687Z,30
2019-06-08T06:04:52.101Z,30
2019-06-08T06:05:51.376Z,30
2019-06-08T06:06:52.988Z,35
2019-06-08T06:07:54.391Z,35
2019-06-08T06:08:55.797Z,30
2019-06-08T06:09:57.604Z,35
2019-06-08T06:10:59.006Z,35
2019-06-08T06:12:00.406Z,40
2019-06-08T06:13:02.040Z,40
2019-06-08T06:14:03.471Z,35
2019-06-08T06:15:04.878Z,35
2019-06-08T06:16:06.604Z,40
2019-06-08T06:17:08.038Z,40
2019-06-08T06:18:09.443Z,35
2019-06-08T06:19:11.110Z,35
2019-06-08T06:20:12.876Z,30
2019-06-08T06:21:14.586Z,35
2019-06-08T06:22:15.998Z,35
2019-06-08T06:23:17.404Z,35
2019-06-08T06:24:19.112Z,35
2019-06-08T06:25:20.513Z,40
2019-06-08T06:26:21.916Z,40
2019-06-08T06:27:23.645Z,40
2019-06-08T06:28:25.046Z,40
2019-06-08T06:29:26.723Z,40
2019-06-08T06:30:28.129Z,40
2019-06-08T06:31:29.807Z,40
2019-06-08T06:32:31.215Z,40
2019-06-08T06:33:32.617Z,45
2019-06-08T06:34:35.157Z,45
2019-06-08T06:35:36.561Z,55
2019-06-08T06:36:37.970Z,55
2019-06-08T06:37:39.683Z,55
2019-06-08T06:38:41.905Z,50
2019-06-08T06:39:43.909Z,50
2019-06-08T06:40:44.141Z,60
2019-06-08T06:41:45.966Z,55
2019-06-08T06:42:47.933Z,55
2019-06-08T06:43:50.308Z,60
2019-06-08T06:44:50.575Z,70
2019-06-08T06:45:52.190Z,55
2019-06-08T06:46:52.982Z,50
2019-06-08T06:47:54.528Z,45
2019-06-08T06:48:57.368Z,45
2019-06-08T06:49:59.014Z,40
2019-06-08T06:51:00.423Z,40
2019-06-08T06:52:02.099Z,40
2019-06-08T06:53:03.498Z,35
2019-06-08T06:54:04.911Z,35
2019-06-08T06:55:06.630Z,45
2019-06-08T06:56:08.033Z,50
2019-06-08T06:57:09.815Z,45
2019-06-08T06:58:11.359Z,50
2019-06-08T06:59:12.761Z,55
2019-06-08T07:00:14.444Z,55
2019-06-08T07:01:15.853Z,40
2019-06-08T07:02:17.526Z,40
2019-06-08T07:03:18.929Z,50
2019-06-08T07:04:20.331Z,55
2019-06-08T07:05:21.855Z,65
2019-06-08T07:06:23.254Z,60
2019-06-08T07:07:24.661Z,55
2019-06-08T07:08:26.173Z,60
2019-06-08T07:09:27.572Z,60
2019-06-08T07:10:28.973Z,60
2019-06-08T07:11:30.506Z,60
2019-06-08T07:12:31.904Z,75
2019-06-08T07:13:33.298Z,80
2019-06-08T07:14:35.665Z,105
2019-06-08T07:15:41.863Z,105
2019-06-08T07:16:38.724Z,125
2019-06-08T07:17:40.127Z,130
2019-06-08T07:18:41.561Z,135
2019-06-08T07:19:43.244Z,140
2019-06-08T07:20:46.022Z,160
2019-06-08T07:21:46.109Z,175
2019-06-08T07:22:48.096Z,150
2019-06-08T07:23:49.523Z,145
2019-06-08T07:24:50.456Z,145
2019-06-08T07:25:52.859Z,150
2019-06-08T07:26:54.529Z,140
2019-06-08T07:27:55.144Z,160
2019-06-08T07:28:56.416Z,275
2019-06-08T07:29:58.941Z,245
2019-06-08T07:30:59.300Z,220
2019-06-08T07:32:00.716Z,185
2019-06-08T07:33:02.385Z,210
2019-06-08T07:34:03.789Z,290
2019-06-08T07:35:05.195Z,210
2019-06-08T07:36:06.908Z,215
2019-06-08T07:37:08.310Z,205
2019-06-08T07:38:09.748Z,305
2019-06-08T07:39:11.595Z,395
2019-06-08T07:40:13.027Z,235
2019-06-08T07:41:14.435Z,300
2019-06-08T07:42:16.020Z,460
2019-06-08T07:43:17.425Z,300
2019-06-08T07:44:19.210Z,420
2019-06-08T07:45:20.898Z,185
2019-06-08T07:46:22.302Z,210
2019-06-08T07:47:23.981Z,240
2019-06-08T07:48:25.386Z,290
2019-06-08T07:49:26.791Z,230
2019-06-08T07:50:28.302Z,130
2019-06-08T07:51:29.706Z,105
2019-06-08T07:52:31.111Z,100
2019-06-08T07:53:32.624Z,165
2019-06-08T07:54:34.031Z,215
2019-06-08T07:55:35.492Z,210
2019-06-08T07:56:36.945Z,115
2019-06-08T07:57:38.356Z,110
2019-06-08T07:58:39.767Z,120
2019-06-08T07:59:41.565Z,105
2019-06-08T08:00:42.969Z,100
2019-06-08T08:01:44.557Z,95
2019-06-08T08:02:45.982Z,95
2019-06-08T08:03:47.953Z,100
2019-06-08T08:04:48.886Z,95
2019-06-08T08:05:50.391Z,95
2019-06-08T08:06:52.444Z,110
2019-06-08T08:07:54.525Z,105
2019-06-08T08:08:54.825Z,120
2019-06-08T08:09:57.003Z,120
2019-06-08T08:10:58.645Z,145
2019-06-08T08:11:59.593Z,120
2019-06-08T08:13:00.405Z,130
2019-06-08T08:14:01.863Z,105
2019-06-08T08:15:03.215Z,130
2019-06-08T08:16:04.736Z,225
2019-06-08T08:17:06.144Z,165
2019-06-08T08:18:07.574Z,165
2019-06-08T08:19:09.252Z,180
2019-06-08T08:20:10.652Z,275
2019-06-08T08:21:21.289Z,255
2019-06-08T08:22:25.829Z,315
2019-06-08T08:23:17.232Z,505
2019-06-08T08:24:17.339Z,810
2019-06-08T08:25:18.225Z,375
2019-06-08T08:26:19.262Z,290
2019-06-08T08:27:20.667Z,285
2019-06-08T08:28:22.219Z,430
2019-06-08T08:29:24.006Z,390
2019-06-08T08:30:25.408Z,395
2019-06-08T08:31:27.823Z,405
2019-06-08T08:32:28.424Z,310
2019-06-08T08:33:29.691Z,450
2019-06-08T08:34:31.272Z,395
2019-06-08T08:35:32.675Z,410
2019-06-08T08:36:34.270Z,505
2019-06-08T08:37:37.905Z,390
2019-06-08T08:38:38.083Z,260
2019-06-08T08:39:38.608Z,335
2019-06-08T08:40:40.010Z,380
2019-06-08T08:41:41.544Z,430
2019-06-08T08:42:42.910Z,305
2019-06-08T08:43:44.313Z,240
2019-06-08T08:44:45.875Z,240
2019-06-08T08:45:47.696Z,180
2019-06-08T08:46:50.050Z,145
2019-06-08T08:47:50.861Z,200
2019-06-08T08:48:52.424Z,275
2019-06-08T08:49:54.003Z,150
2019-06-08T08:50:54.518Z,165
2019-06-08T08:51:56.160Z,205
2019-06-08T08:53:00.338Z,110
2019-06-08T08:54:03.470Z,90
2019-06-08T08:55:00.933Z,95
2019-06-08T08:56:02.536Z,85
2019-06-08T08:57:05.121Z,120
2019-06-08T08:58:04.471Z,120
2019-06-08T08:59:07.763Z,140
2019-06-08T09:00:08.526Z,115
2019-06-08T09:01:08.926Z,175
2019-06-08T09:02:11.465Z,225
2019-06-08T09:03:24.632Z,245
2019-06-08T09:04:13.175Z,300
2019-06-08T09:05:14.684Z,255
2019-06-08T09:06:18.007Z,260
2019-06-08T09:07:18.359Z,225
2019-06-08T09:08:18.936Z,220
2019-06-08T09:09:21.698Z,340
2019-06-08T09:10:21.816Z,175
2019-06-08T09:11:23.253Z,145
2019-06-08T09:12:24.783Z,270
2019-06-08T09:13:27.896Z,510
2019-06-08T09:14:28.087Z,355
2019-06-08T09:15:31.400Z,250
2019-06-08T09:16:30.461Z,410
2019-06-08T09:17:32.349Z,285
2019-06-08T09:18:33.754Z,255
2019-06-08T09:19:37.985Z,135
2019-06-08T09:20:38.045Z,260
2019-06-08T09:21:38.769Z,210
2019-06-08T09:22:52.977Z,180
2019-06-08T09:23:41.772Z,165
2019-06-08T09:24:43.178Z,175
2019-06-08T09:25:44.741Z,135
2019-06-08T09:26:47.616Z,180
2019-06-08T09:27:48.189Z,295
2019-06-08T09:28:49.351Z,160
2019-06-08T09:29:53.269Z,130
2019-06-08T09:30:52.289Z,170
2019-06-08T09:31:53.939Z,270
2019-06-08T09:32:57.152Z,270
2019-06-08T09:34:05.429Z,220
2019-06-08T09:35:02.336Z,220
2019-06-08T09:36:02.394Z,160
2019-06-08T09:37:02.871Z,145
2019-06-08T09:38:04.585Z,175
2019-06-08T09:39:05.323Z,120
2019-06-08T09:40:05.717Z,75
2019-06-08T09:41:08.811Z,110
2019-06-08T09:42:09.034Z,200
2019-06-08T09:43:13.082Z,220
2019-06-08T09:44:11.904Z,205
2019-06-08T09:45:12.861Z,255
2019-06-08T09:46:14.248Z,245
2019-06-08T09:47:17.940Z,255
2019-06-08T09:48:18.230Z,185
2019-06-08T09:49:18.813Z,160
2019-06-08T09:50:19.759Z,205
2019-06-08T09:51:21.351Z,125
2019-06-08T09:52:22.763Z,155
2019-06-08T09:53:34.172Z,100
2019-06-08T09:54:28.143Z,100
2019-06-08T09:55:28.687Z,85
2019-06-08T09:56:28.589Z,90
2019-06-08T09:57:29.959Z,115
2019-06-08T09:58:31.637Z,175
2019-06-08T09:59:33.040Z,160
2019-06-08T10:00:34.445Z,165
2019-06-08T10:01:38.256Z,175
2019-06-08T10:02:37.327Z,155
2019-06-08T10:03:39.196Z,230
2019-06-08T10:04:40.279Z,275
2019-06-08T10:05:41.685Z,265
2019-06-08T10:06:43.364Z,240
2019-06-08T10:07:45.150Z,190
2019-06-08T10:08:48.061Z,165
2019-06-08T10:09:50.029Z,210
2019-06-08T10:10:49.393Z,285
2019-06-08T10:11:50.978Z,280
2019-06-08T10:12:52.381Z,180
2019-06-08T10:13:54.465Z,230
2019-06-08T10:14:56.651Z,260
2019-06-08T10:16:00.008Z,245
2019-06-08T10:17:00.683Z,220
2019-06-08T10:18:00.908Z,290
2019-06-08T10:19:04.762Z,300
2019-06-08T10:20:04.492Z,255
2019-06-08T10:21:05.981Z,195
2019-06-08T10:22:08.432Z,265
2019-06-08T10:23:26.802Z,355
2019-06-08T10:24:09.841Z,360
2019-06-08T10:25:11.556Z,360
2019-06-08T10:26:13.035Z,320
2019-06-08T10:27:14.504Z,330
2019-06-08T10:28:19.139Z,320
2019-06-08T10:29:18.480Z,300
2019-06-08T10:30:19.231Z,310
2019-06-08T10:31:33.193Z,275
2019-06-08T10:32:22.232Z,320
2019-06-08T10:33:24.305Z,285
2019-06-08T10:34:27.303Z,225
2019-06-08T10:35:28.322Z,225
2019-06-08T10:36:28.632Z,250
2019-06-08T10:37:30.274Z,270
2019-06-08T10:38:31.694Z,270
2019-06-08T10:39:34.204Z,265
2019-06-08T10:40:35.595Z,285
2019-06-08T10:41:38.850Z,245
2019-06-08T10:42:40.176Z,260
2019-06-08T10:43:40.429Z,270
2019-06-08T10:44:42.277Z,290
2019-06-08T10:45:43.685Z,340
2019-06-08T10:46:45.321Z,355
2019-06-08T10:47:47.925Z,275
2019-06-08T10:48:48.649Z,270
2019-06-08T10:49:49.805Z,310
2019-06-08T10:50:51.670Z,390
2019-06-08T10:51:53.104Z,315
2019-06-08T10:52:55.813Z,295
2019-06-08T10:53:57.899Z,280
2019-06-08T10:55:01.565Z,250
2019-06-08T10:56:01.689Z,245
2019-06-08T10:57:05.088Z,245
2019-06-08T10:58:06.351Z,300
2019-06-08T10:59:09.852Z,305
2019-06-08T11:00:13.719Z,265
2019-06-08T11:01:12.118Z,235
2019-06-08T11:02:13.939Z,205
2019-06-08T11:03:13.159Z,205
2019-06-08T11:04:14.727Z,285
2019-06-08T11:05:17.910Z,305
2019-06-08T11:06:18.863Z,330
2019-06-08T11:07:19.034Z,440
2019-06-08T11:08:20.454Z,455
2019-06-08T11:09:21.977Z,445
2019-06-08T11:10:23.953Z,425
2019-06-08T11:11:25.424Z,405
2019-06-08T11:12:28.353Z,415
2019-06-08T11:13:28.468Z,430
2019-06-08T11:14:29.880Z,340
2019-06-08T11:15:31.322Z,295
2019-06-08T11:16:33.021Z,230
2019-06-08T11:17:34.436Z,220
2019-06-08T11:18:36.456Z,185
2019-06-08T11:19:37.931Z,230
2019-06-08T11:20:39.492Z,260
2019-06-08T11:21:40.926Z,345
2019-06-08T11:22:42.496Z,310
2019-06-08T11:23:43.901Z,260
2019-06-08T11:24:45.540Z,255
2019-06-08T11:25:48.788Z,285
2019-06-08T11:26:48.659Z,320
2019-06-08T11:27:50.066Z,310
2019-06-08T11:28:51.724Z,290
2019-06-08T11:29:53.584Z,280
2019-06-08T11:30:55.233Z,285
2019-06-08T11:31:58.268Z,275
2019-06-08T11:32:59.770Z,295
2019-06-08T11:34:00.347Z,315
2019-06-08T11:35:01.942Z,470
2019-06-08T11:36:05.906Z,520
2019-06-08T11:37:04.758Z,390
2019-06-08T11:38:06.704Z,395
2019-06-08T11:39:09.093Z,335
2019-06-08T11:40:11.021Z,240
2019-06-08T11:41:12.134Z,170
2019-06-08T11:42:12.979Z,135
2019-06-08T11:43:12.732Z,165
2019-06-08T11:44:14.840Z,320
2019-06-08T11:45:17.555Z,250
2019-06-08T11:46:20.897Z,205
2019-06-08T11:47:18.602Z,385
2019-06-08T11:48:20.102Z,325
2019-06-08T11:49:21.541Z,370
2019-06-08T11:50:23.003Z,340
2019-06-08T11:51:24.627Z,285
2019-06-08T11:52:28.353Z,270
2019-06-08T11:53:28.832Z,265
2019-06-08T11:54:36.471Z,280
2019-06-08T11:55:30.355Z,250
2019-06-08T11:56:31.767Z,190
2019-06-08T11:57:33.282Z,160
2019-06-08T11:58:34.731Z,180
2019-06-08T11:59:37.515Z,240
2019-06-08T12:00:37.911Z,200
2019-06-08T12:01:38.995Z,145
2019-06-08T12:02:41.371Z,150
2019-06-08T12:03:41.914Z,200
2019-06-08T12:04:43.322Z,140
2019-06-08T12:05:44.728Z,190
2019-06-08T12:06:48.264Z,265
2019-06-08T12:07:48.035Z,340
2019-06-08T12:08:48.971Z,295
2019-06-08T12:09:50.555Z,315
2019-06-08T12:10:51.960Z,370
2019-06-08T12:11:53.359Z,305
2019-06-08T12:12:57.323Z,290
2019-06-08T12:13:58.352Z,280
2019-06-08T12:14:58.319Z,215
2019-06-08T12:15:59.199Z,260
2019-06-08T12:17:01.344Z,305
2019-06-08T12:18:03.374Z,300
2019-06-08T12:19:04.387Z,310
2019-06-08T12:20:05.530Z,320
2019-06-08T12:21:08.617Z,355
2019-06-08T12:22:08.759Z,365
2019-06-08T12:23:10.028Z,340
2019-06-08T12:24:12.358Z,305
2019-06-08T12:25:12.507Z,355
2019-06-08T12:26:14.561Z,445
2019-06-08T12:27:29.141Z,485
2019-06-08T12:28:17.840Z,460
2019-06-08T12:29:18.898Z,450
2019-06-08T12:30:25.632Z,440
2019-06-08T12:31:22.568Z,375
2019-06-08T12:32:23.261Z,335
2019-06-08T12:33:24.678Z,345
2019-06-08T12:34:27.974Z,375
2019-06-08T12:35:28.363Z,400
2019-06-08T12:36:30.618Z,405
2019-06-08T12:37:30.346Z,430
2019-06-08T12:38:34.457Z,475
2019-06-08T12:39:33.279Z,460
2019-06-08T12:40:34.692Z,435
2019-06-08T12:41:37.730Z,535
2019-06-08T12:42:38.131Z,365
2019-06-08T12:43:39.128Z,480
2019-06-08T12:44:43.462Z,400
2019-06-08T12:45:41.999Z,480
2019-06-08T12:46:43.402Z,370
2019-06-08T12:47:44.809Z,350
2019-06-08T12:48:46.318Z,265
2019-06-08T12:49:48.419Z,325
2019-06-08T12:50:49.101Z,415
2019-06-08T12:51:51.765Z,405
2019-06-08T12:52:52.012Z,395
2019-06-08T12:53:53.417Z,360
2019-06-08T12:55:03.470Z,390
2019-06-08T12:55:57.921Z,425
2019-06-08T12:56:57.976Z,395
2019-06-08T12:57:59.487Z,365
2019-06-08T12:59:01.018Z,335
2019-06-08T13:00:02.422Z,335
2019-06-08T13:01:04.023Z,405
2019-06-08T13:02:05.436Z,455
2019-06-08T13:03:08.621Z,395
2019-06-08T13:04:09.453Z,475
2019-06-08T13:05:13.317Z,380
2019-06-08T13:06:12.488Z,370
2019-06-08T13:07:13.133Z,520
2019-06-08T13:08:15.287Z,480
2019-06-08T13:09:16.709Z,300
2019-06-08T13:10:20.105Z,330
2019-06-08T13:11:18.965Z,335
2019-06-08T13:12:21.623Z,365
2019-06-08T13:13:24.464Z,380
2019-06-08T13:14:22.950Z,450
2019-06-08T13:15:24.359Z,320
2019-06-08T13:16:28.249Z,235
2019-06-08T13:17:27.978Z,275
2019-06-08T13:18:28.965Z,290
2019-06-08T13:19:30.405Z,265
2019-06-08T13:20:32.003Z,270
2019-06-08T13:21:35.247Z,305
2019-06-08T13:22:34.827Z,260
2019-06-08T13:23:38.313Z,265
2019-06-08T13:24:37.860Z,205
2019-06-08T13:25:43.453Z,200
2019-06-08T13:26:40.643Z,180
2019-06-08T13:27:42.052Z,160
2019-06-08T13:28:43.458Z,180
2019-06-08T13:29:44.960Z,145
2019-06-08T13:30:47.858Z,185
2019-06-08T13:31:47.758Z,200
2019-06-08T13:32:49.283Z,260
2019-06-08T13:33:50.714Z,290
2019-06-08T13:34:52.127Z,310
2019-06-08T13:35:53.645Z,320
2019-06-08T13:36:55.049Z,320
2019-06-08T13:37:57.484Z,295
2019-06-08T13:38:58.157Z,210
2019-06-08T13:39:59.589Z,185
2019-06-08T13:41:01.051Z,125
2019-06-08T13:42:02.667Z,195
2019-06-08T13:43:04.077Z,230
2019-06-08T13:44:08.095Z,185
2019-06-08T13:45:07.536Z,145
2019-06-08T13:46:08.349Z,150
2019-06-08T13:47:10.994Z,150
2019-06-08T13:48:11.993Z,100
2019-06-08T13:49:12.669Z,150
2019-06-08T13:50:14.524Z,235
2019-06-08T13:51:17.859Z,230
2019-06-08T13:52:20.347Z,180
2019-06-08T13:53:24.388Z,145
2019-06-08T13:54:21.442Z,135
2019-06-08T13:55:42.333Z,150
2019-06-08T13:56:23.909Z,130
2019-06-08T13:57:25.144Z,115
2019-06-08T13:58:29.754Z,160
2019-06-08T13:59:30.331Z,95
2019-06-08T14:00:29.001Z,130
2019-06-08T14:01:30.870Z,175
2019-06-08T14:02:32.084Z,230
2019-06-08T14:03:33.499Z,255
2019-06-08T14:04:39.219Z,240
2019-06-08T14:05:38.509Z,210
2019-06-08T14:06:38.632Z,200
2019-06-08T14:07:40.053Z,245
2019-06-08T14:08:41.467Z,285
2019-06-08T14:09:43.000Z,270
2019-06-08T14:10:44.401Z,240
2019-06-08T14:11:47.577Z,180
2019-06-08T14:12:48.841Z,195
2019-06-08T14:13:48.677Z,220
2019-06-08T14:14:50.108Z,220
2019-06-08T14:15:51.640Z,185
2019-06-08T14:16:53.046Z,220
2019-06-08T14:17:54.451Z,225
2019-06-08T14:18:55.952Z,175
2019-06-08T14:19:59.300Z,165
2019-06-08T14:20:59.309Z,200
2019-06-08T14:22:00.307Z,225
2019-06-08T14:23:01.711Z,170
2019-06-08T14:24:03.119Z,150
2019-06-08T14:25:04.795Z,120
2019-06-08T14:26:08.179Z,100
2019-06-08T14:27:08.233Z,90
2019-06-08T14:28:09.120Z,85
2019-06-08T14:29:10.545Z,90
2019-06-08T14:30:11.950Z,95
2019-06-08T14:31:13.436Z,95
2019-06-08T14:32:14.840Z,80